Aviation Digital Data Service (ADDS)

Output produced by METARs form (1342 UTC 08 May 2021)
found at http://aviationweather.gov/metar/data/
 
KLFT 081120Z 0812/0912 VRB03KT P6SM FEW250 
     FM081500 18010G17KT P6SM FEW250 
     FM090100 18007KT P6SM SKC